TimeCST,TemperatureF,Dew PointF,Humidity,Sea Level PressureIn,VisibilityMPH,Wind Direction,Wind SpeedMPH,Gust SpeedMPH,PrecipitationIn,Events,Conditions,WindDirDegrees,DateUTC
12:15 AM,40.1,29.1,65,30.23,10.0,South,11.5,-,N/A,,Clear,190,2013-01-19 06:15:00
12:35 AM,40.3,28.8,63,30.22,10.0,South,12.7,18.4,N/A,,Clear,190,2013-01-19 06:35:00
12:55 AM,40.1,28.9,64,30.22,10.0,South,11.5,-,N/A,,Clear,190,2013-01-19 06:55:00
1:15 AM,40.5,28.6,63,30.23,10.0,South,11.5,17.3,N/A,,Clear,190,2013-01-19 07:15:00
1:35 AM,41.5,28.0,59,30.23,10.0,SSW,11.5,-,N/A,,Clear,200,2013-01-19 07:35:00
1:55 AM,41.9,27.5,57,30.23,10.0,SSW,15.0,-,N/A,,Clear,200,2013-01-19 07:55:00
2:15 AM,42.8,27.5,55,30.23,10.0,SSW,15.0,-,N/A,,Clear,210,2013-01-19 08:15:00
2:35 AM,43.0,27.5,54,30.23,10.0,SSW,12.7,20.7,N/A,,Clear,200,2013-01-19 08:35:00
2:55 AM,42.3,28.2,58,30.23,10.0,SSW,11.5,19.6,N/A,,Clear,210,2013-01-19 08:55:00
3:15 AM,42.1,28.6,59,30.23,10.0,SSW,13.8,19.6,N/A,,Clear,200,2013-01-19 09:15:00
3:35 AM,42.3,28.4,58,30.22,10.0,SSW,12.7,18.4,N/A,,Clear,200,2013-01-19 09:35:00
3:55 AM,41.9,28.6,59,30.21,10.0,SSW,11.5,-,N/A,,Clear,200,2013-01-19 09:55:00
4:15 AM,41.7,28.4,59,30.20,10.0,SSW,15.0,20.7,N/A,,Clear,200,2013-01-19 10:15:00
4:35 AM,41.9,28.4,59,30.20,10.0,SSW,13.8,19.6,N/A,,Clear,200,2013-01-19 10:35:00
4:55 AM,42.1,28.4,58,30.20,10.0,SSW,12.7,20.7,N/A,,Clear,210,2013-01-19 10:55:00
5:15 AM,42.1,28.6,59,30.20,10.0,SSW,15.0,-,N/A,,Clear,210,2013-01-19 11:15:00
5:35 AM,41.5,28.8,60,30.20,10.0,SSW,15.0,21.9,N/A,,Clear,200,2013-01-19 11:35:00
5:55 AM,41.7,29.3,61,30.20,10.0,SSW,16.1,19.6,N/A,,Clear,200,2013-01-19 11:55:00
7:15 AM,41.0,31.3,68,30.19,10.0,South,15.0,21.9,N/A,,Clear,190,2013-01-19 13:15:00
8:35 AM,42.1,32.0,67,30.18,10.0,South,18.4,21.9,N/A,,Clear,190,2013-01-19 14:35:00
9:35 AM,47.1,32.2,56,30.18,10.0,SSW,20.7,26.5,N/A,,Clear,200,2013-01-19 15:35:00
9:55 AM,48.4,32.5,54,30.17,10.0,SSW,18.4,28.8,N/A,,Clear,200,2013-01-19 15:55:00
10:15 AM,49.6,32.2,51,30.16,10.0,SSW,20.7,26.5,N/A,,Clear,200,2013-01-19 16:15:00
10:35 AM,50.5,32.5,50,30.15,10.0,SSW,23.0,27.6,N/A,,Clear,200,2013-01-19 16:35:00
11:15 AM,52.2,33.3,49,30.12,10.0,SSW,19.6,31.1,N/A,,Clear,200,2013-01-19 17:15:00
11:35 AM,52.9,33.8,48,30.10,10.0,SSW,19.6,28.8,N/A,,Clear,200,2013-01-19 17:35:00
11:55 AM,53.8,34.2,47,30.09,10.0,SSW,26.5,32.2,N/A,,Clear,200,2013-01-19 17:55:00
12:15 PM,54.9,34.7,47,30.07,10.0,South,24.2,28.8,N/A,,Clear,190,2013-01-19 18:15:00
12:35 PM,55.8,34.7,45,30.06,10.0,SSW,19.6,25.3,N/A,,Clear,210,2013-01-19 18:35:00
12:55 PM,56.7,34.3,43,30.05,10.0,SSW,21.9,26.5,N/A,,Clear,210,2013-01-19 18:55:00
1:15 PM,57.2,34.7,43,30.04,7.0,SSW,23.0,28.8,N/A,,Clear,200,2013-01-19 19:15:00
1:35 PM,57.4,34.7,43,30.02,10.0,SSW,25.3,31.1,N/A,,Clear,200,2013-01-19 19:35:00
1:55 PM,57.2,35.1,43,30.02,10.0,SSW,18.4,33.4,N/A,,Clear,210,2013-01-19 19:55:00
2:15 PM,57.7,35.8,44,30.01,10.0,SSW,25.3,29.9,N/A,,Clear,200,2013-01-19 20:15:00
2:35 PM,57.2,36.1,45,30.00,10.0,SSW,25.3,32.2,N/A,,Clear,200,2013-01-19 20:35:00
2:55 PM,57.2,36.5,46,29.99,10.0,SSW,26.5,33.4,N/A,,Clear,200,2013-01-19 20:55:00
3:15 PM,57.2,36.3,46,29.99,10.0,SSW,26.5,32.2,N/A,,Clear,200,2013-01-19 21:15:00
3:35 PM,57.2,37.2,47,29.98,10.0,SSW,21.9,29.9,N/A,,Clear,200,2013-01-19 21:35:00
3:55 PM,56.5,37.8,50,29.97,10.0,South,21.9,-,N/A,,Clear,190,2013-01-19 21:55:00
4:15 PM,55.6,37.4,50,29.96,10.0,South,21.9,29.9,N/A,,Clear,190,2013-01-19 22:15:00
4:35 PM,55.4,37.2,50,29.99,10.0,SW,16.1,21.9,N/A,,Clear,220,2013-01-19 22:35:00
4:55 PM,54.9,36.7,50,30.00,10.0,SSW,17.3,26.5,N/A,,Clear,210,2013-01-19 22:55:00
5:15 PM,53.6,37.0,53,30.00,10.0,SSW,17.3,25.3,N/A,,Clear,210,2013-01-19 23:15:00
5:35 PM,53.1,37.4,55,30.01,10.0,SSW,18.4,28.8,N/A,,Clear,210,2013-01-19 23:35:00
5:55 PM,52.3,37.8,58,30.01,10.0,SSW,19.6,23.0,N/A,,Clear,210,2013-01-19 23:55:00
6:15 PM,52.3,37.9,58,30.02,10.0,SSW,18.4,31.1,N/A,,Clear,210,2013-01-20 00:15:00
6:35 PM,51.8,38.3,60,30.02,10.0,SSW,17.3,27.6,N/A,,Clear,210,2013-01-20 00:35:00
6:55 PM,51.3,38.5,62,30.03,10.0,SSW,18.4,27.6,N/A,,Clear,210,2013-01-20 00:55:00
7:15 PM,50.9,38.7,63,30.03,10.0,SSW,16.1,25.3,N/A,,Clear,210,2013-01-20 01:15:00
7:35 PM,50.7,38.8,64,30.03,10.0,SSW,17.3,26.5,N/A,,Clear,210,2013-01-20 01:35:00
7:55 PM,50.7,39.0,64,30.03,10.0,SSW,19.6,25.3,N/A,,Clear,210,2013-01-20 01:55:00
8:15 PM,50.5,39.2,65,30.04,10.0,SSW,16.1,26.5,N/A,,Clear,210,2013-01-20 02:15:00
8:35 PM,49.8,39.2,67,30.04,10.0,SSW,12.7,-,N/A,,Clear,210,2013-01-20 02:35:00
8:55 PM,49.5,39.2,68,30.04,10.0,SSW,17.3,24.2,N/A,,Clear,210,2013-01-20 02:55:00
9:15 PM,49.6,39.2,67,30.05,10.0,SW,19.6,-,N/A,,Clear,220,2013-01-20 03:15:00
9:35 PM,48.9,39.2,69,30.06,10.0,SW,16.1,23.0,N/A,,Clear,220,2013-01-20 03:35:00
9:55 PM,48.2,39.4,72,30.07,10.0,SW,15.0,-,N/A,,Clear,220,2013-01-20 03:55:00
10:15 PM,47.5,39.4,73,30.07,10.0,SW,13.8,-,N/A,,Clear,230,2013-01-20 04:15:00
10:35 PM,47.3,39.6,74,30.07,10.0,SW,13.8,-,N/A,,Clear,220,2013-01-20 04:35:00
10:55 PM,46.8,39.4,75,30.07,10.0,SW,12.7,-,N/A,,Clear,230,2013-01-20 04:55:00
11:15 PM,47.1,39.4,74,30.07,10.0,SW,13.8,-,N/A,,Clear,220,2013-01-20 05:15:00
11:35 PM,46.0,39.2,77,30.07,10.0,SW,15.0,-,N/A,,Clear,220,2013-01-20 05:35:00
11:55 PM,45.5,39.2,79,30.08,10.0,SW,11.5,-,N/A,,Clear,220,2013-01-20 05:55:00